ノヴォシビルスク の空港の天気 - METARとTAF

トルマチェヴォ空港(ノヴォシビルスク) ( UNNT / OVB ) - ロシア ノヴォシビルスク
飛行場実況気象(Metar)
観測時間10/20 08:30 OMST (10/20 02:30 UTC)
風向・風速南南東 6m/s
視程10km以上
天気現象
全天を覆う雲 雲底高度 490m
気温6℃
湿度87%
気圧1007hPa
METARUNNT 200230Z 15006MPS 9999 OVC016 06/04 Q1007 R25/290155 R16/290155 NOSIG RMK QFE746/0994
過去の天気等 Google飛行場航空写真 Wunderground天気予報

過去48時間のMETAR

飛行場予報(TAF)
発表時間: 10/20 08:00 OMST (10/20 02:00 UTC)
予報対象時間: 20日9時 OMST ~ 21日9時 OMST
風向・風速南 6m/s 瞬間風速 13m/s
視程10km以上
全天の8割程度の積乱雲 雲底高度 460m
20日9時 OMST ~ 20日11時 OMST に一時的に
風向・風速南東 7m/s 瞬間風速 13m/s
20日11時 OMST ~ 21日1時 OMST に一時的に
風向・風速南西 8m/s 瞬間風速 16m/s
視程3,100m
天気現象弱いしゅう雨
全天の8割程度の積乱雲 雲底高度 340m
21日1時 OMST ~ 21日9時 OMST に一時的に
風向・風速西南西 3m/s 瞬間風速 8m/s
視程3,100m
天気現象弱いしゅう雨 もや
全天の8割程度の雲 雲底高度 150m
全天の8割程度の積乱雲 雲底高度 340m
TAF UNNT 200200Z 2003/2103 19006G13MPS 9999 BKN015CB
TEMPO 2003/2005 14007G13MPS
TEMPO 2005/2019 23008G16MPS 3100 -SHRA BKN011CB
TEMPO 2019/2103 24003G08MPS 3100 -SHRA BR BKN005 BKN011CB